Terminal Aerodrome Forecast
Issued by NWS North Platte, NE

Home | Current Version | Previous Version | Text Only | Print | Product List | Glossary Off
Versions: 1 2 3 4 5 6 7 8 9 10 11 12 13 14 15 16

668
FTUS43 KLBF 212321
TAFVTN
TAF
KVTN 212321Z 2200/2224 36015G21KT 2SM -SN OVC012
      TEMPO 2200/2204 1SM -SN BLSN OVC008
     FM220400 35016G22KT 3/4SM -SN BLSN OVC015
     FM220800 35015G21KT 2SM -SN OVC012
     FM221100 34015G21KT P6SM OVC014
     FM221600 33014G20KT P6SM BKN030
     FM221700 33014G20KT P6SM SCT060=

USA.gov is the U.S. government's official web portal to all federal, state and local government web resources and services.